sensor_id;sensor_type;location;lat;lon;timestamp;temperature;humidity
37678;DHT22;23517;50.390;8.616;2023-06-24T00:02:28;15.00;58.20
37678;DHT22;23517;50.390;8.616;2023-06-24T00:04:55;15.00;58.50
37678;DHT22;23517;50.390;8.616;2023-06-24T00:07:27;15.10;58.40
37678;DHT22;23517;50.390;8.616;2023-06-24T00:09:53;15.20;57.90
37678;DHT22;23517;50.390;8.616;2023-06-24T00:12:20;15.30;57.50
37678;DHT22;23517;50.390;8.616;2023-06-24T00:14:47;15.30;57.10
37678;DHT22;23517;50.390;8.616;2023-06-24T00:17:14;15.40;56.50
37678;DHT22;23517;50.390;8.616;2023-06-24T00:19:42;15.30;56.50
37678;DHT22;23517;50.390;8.616;2023-06-24T00:22:10;15.10;57.20
37678;DHT22;23517;50.390;8.616;2023-06-24T00:24:40;15.00;58.00
37678;DHT22;23517;50.390;8.616;2023-06-24T00:27:09;14.80;58.50
37678;DHT22;23517;50.390;8.616;2023-06-24T00:29:35;14.70;58.90
37678;DHT22;23517;50.390;8.616;2023-06-24T00:32:02;14.60;59.50
37678;DHT22;23517;50.390;8.616;2023-06-24T00:34:29;14.70;59.70
37678;DHT22;23517;50.390;8.616;2023-06-24T00:36:56;14.70;59.40
37678;DHT22;23517;50.390;8.616;2023-06-24T00:39:22;14.70;59.20
37678;DHT22;23517;50.390;8.616;2023-06-24T00:41:49;14.70;58.90
37678;DHT22;23517;50.390;8.616;2023-06-24T00:44:16;14.60;58.80
37678;DHT22;23517;50.390;8.616;2023-06-24T00:46:42;14.60;58.70
37678;DHT22;23517;50.390;8.616;2023-06-24T00:49:09;14.70;58.90
37678;DHT22;23517;50.390;8.616;2023-06-24T00:51:36;14.70;58.50
37678;DHT22;23517;50.390;8.616;2023-06-24T00:54:03;14.60;58.60
37678;DHT22;23517;50.390;8.616;2023-06-24T00:56:34;14.60;59.10
37678;DHT22;23517;50.390;8.616;2023-06-24T00:59:07;14.60;59.00
37678;DHT22;23517;50.390;8.616;2023-06-24T01:01:35;14.60;58.10
37678;DHT22;23517;50.390;8.616;2023-06-24T01:04:03;14.60;58.00
37678;DHT22;23517;50.390;8.616;2023-06-24T01:06:30;14.50;58.20
37678;DHT22;23517;50.390;8.616;2023-06-24T01:09:01;14.40;59.20
37678;DHT22;23517;50.390;8.616;2023-06-24T01:11:29;14.30;60.40
37678;DHT22;23517;50.390;8.616;2023-06-24T01:13:56;14.30;60.50
37678;DHT22;23517;50.390;8.616;2023-06-24T01:16:42;14.30;60.20
37678;DHT22;23517;50.390;8.616;2023-06-24T01:19:51;14.30;60.50
37678;DHT22;23517;50.390;8.616;2023-06-24T01:23:01;14.30;60.30
37678;DHT22;23517;50.390;8.616;2023-06-24T01:32:33;14.20;60.50
37678;DHT22;23517;50.390;8.616;2023-06-24T01:35:09;14.30;60.50
37678;DHT22;23517;50.390;8.616;2023-06-24T01:37:42;14.30;59.90
37678;DHT22;23517;50.390;8.616;2023-06-24T01:40:32;14.40;59.30
37678;DHT22;23517;50.390;8.616;2023-06-24T01:43:04;14.30;59.30
37678;DHT22;23517;50.390;8.616;2023-06-24T01:45:36;14.20;60.40
37678;DHT22;23517;50.390;8.616;2023-06-24T01:48:25;14.10;61.20
37678;DHT22;23517;50.390;8.616;2023-06-24T01:51:23;14.00;61.90
37678;DHT22;23517;50.390;8.616;2023-06-24T01:54:01;13.90;61.40
37678;DHT22;23517;50.390;8.616;2023-06-24T01:56:30;13.90;61.80
37678;DHT22;23517;50.390;8.616;2023-06-24T01:59:00;13.80;62.30
37678;DHT22;23517;50.390;8.616;2023-06-24T02:01:32;13.90;62.70
37678;DHT22;23517;50.390;8.616;2023-06-24T02:04:01;13.90;62.30
37678;DHT22;23517;50.390;8.616;2023-06-24T02:06:30;14.00;61.40
37678;DHT22;23517;50.390;8.616;2023-06-24T02:08:58;14.00;61.20
37678;DHT22;23517;50.390;8.616;2023-06-24T02:11:28;14.10;61.10
37678;DHT22;23517;50.390;8.616;2023-06-24T02:13:57;14.00;60.80
37678;DHT22;23517;50.390;8.616;2023-06-24T02:16:26;14.00;61.10
37678;DHT22;23517;50.390;8.616;2023-06-24T02:18:54;14.00;61.10
37678;DHT22;23517;50.390;8.616;2023-06-24T02:21:23;14.10;60.80
37678;DHT22;23517;50.390;8.616;2023-06-24T02:23:52;14.00;60.40
37678;DHT22;23517;50.390;8.616;2023-06-24T02:26:22;14.00;61.10
37678;DHT22;23517;50.390;8.616;2023-06-24T02:28:50;14.00;61.20
37678;DHT22;23517;50.390;8.616;2023-06-24T02:31:17;13.90;60.90
37678;DHT22;23517;50.390;8.616;2023-06-24T02:33:44;13.90;61.40
37678;DHT22;23517;50.390;8.616;2023-06-24T02:36:11;13.80;61.20
37678;DHT22;23517;50.390;8.616;2023-06-24T02:38:38;13.70;62.00
37678;DHT22;23517;50.390;8.616;2023-06-24T02:41:05;13.70;62.40
37678;DHT22;23517;50.390;8.616;2023-06-24T02:43:33;13.70;62.10
37678;DHT22;23517;50.390;8.616;2023-06-24T02:46:03;13.80;62.80
37678;DHT22;23517;50.390;8.616;2023-06-24T02:48:33;13.80;62.80
37678;DHT22;23517;50.390;8.616;2023-06-24T02:51:02;13.80;62.40
37678;DHT22;23517;50.390;8.616;2023-06-24T02:53:30;13.70;63.00
37678;DHT22;23517;50.390;8.616;2023-06-24T02:55:57;13.80;62.90
37678;DHT22;23517;50.390;8.616;2023-06-24T02:58:25;13.80;62.90
37678;DHT22;23517;50.390;8.616;2023-06-24T03:00:59;13.80;62.90
37678;DHT22;23517;50.390;8.616;2023-06-24T03:03:27;13.80;63.10
37678;DHT22;23517;50.390;8.616;2023-06-24T03:05:55;13.90;62.80
37678;DHT22;23517;50.390;8.616;2023-06-24T03:08:25;13.90;62.30
37678;DHT22;23517;50.390;8.616;2023-06-24T03:10:56;13.90;62.50
37678;DHT22;23517;50.390;8.616;2023-06-24T03:13:24;13.90;62.90
37678;DHT22;23517;50.390;8.616;2023-06-24T03:15:51;13.90;63.10
37678;DHT22;23517;50.390;8.616;2023-06-24T03:18:17;14.00;62.70
37678;DHT22;23517;50.390;8.616;2023-06-24T03:20:44;14.00;62.40
37678;DHT22;23517;50.390;8.616;2023-06-24T03:23:12;14.00;62.00
37678;DHT22;23517;50.390;8.616;2023-06-24T03:25:38;14.10;61.90
37678;DHT22;23517;50.390;8.616;2023-06-24T03:28:05;14.10;61.60
37678;DHT22;23517;50.390;8.616;2023-06-24T03:30:34;14.20;61.40
37678;DHT22;23517;50.390;8.616;2023-06-24T03:33:01;14.20;61.10
37678;DHT22;23517;50.390;8.616;2023-06-24T03:35:28;14.10;61.10
37678;DHT22;23517;50.390;8.616;2023-06-24T03:37:56;14.20;61.20
37678;DHT22;23517;50.390;8.616;2023-06-24T03:40:22;14.20;61.30
37678;DHT22;23517;50.390;8.616;2023-06-24T03:42:49;14.20;61.10
37678;DHT22;23517;50.390;8.616;2023-06-24T03:45:16;14.30;60.90
37678;DHT22;23517;50.390;8.616;2023-06-24T03:47:43;14.30;60.80
37678;DHT22;23517;50.390;8.616;2023-06-24T03:50:10;14.40;60.60
37678;DHT22;23517;50.390;8.616;2023-06-24T03:52:36;14.40;60.30
37678;DHT22;23517;50.390;8.616;2023-06-24T03:55:03;14.40;60.10
37678;DHT22;23517;50.390;8.616;2023-06-24T03:57:31;14.30;60.00
37678;DHT22;23517;50.390;8.616;2023-06-24T03:59:58;14.20;60.30
37678;DHT22;23517;50.390;8.616;2023-06-24T04:02:24;14.10;61.20
37678;DHT22;23517;50.390;8.616;2023-06-24T04:04:53;14.10;62.60
37678;DHT22;23517;50.390;8.616;2023-06-24T04:07:22;14.00;63.20
37678;DHT22;23517;50.390;8.616;2023-06-24T04:09:54;13.90;64.40
37678;DHT22;23517;50.390;8.616;2023-06-24T04:12:23;14.10;64.00
37678;DHT22;23517;50.390;8.616;2023-06-24T04:14:50;14.10;64.10
37678;DHT22;23517;50.390;8.616;2023-06-24T04:17:17;14.10;64.00
37678;DHT22;23517;50.390;8.616;2023-06-24T04:19:43;14.20;63.90
37678;DHT22;23517;50.390;8.616;2023-06-24T04:22:11;14.20;63.70
37678;DHT22;23517;50.390;8.616;2023-06-24T04:24:37;14.20;64.20
37678;DHT22;23517;50.390;8.616;2023-06-24T04:27:07;14.20;64.60
37678;DHT22;23517;50.390;8.616;2023-06-24T04:29:34;14.30;64.40
37678;DHT22;23517;50.390;8.616;2023-06-24T04:32:01;14.40;64.20
37678;DHT22;23517;50.390;8.616;2023-06-24T04:34:28;14.50;64.00
37678;DHT22;23517;50.390;8.616;2023-06-24T04:36:55;14.60;63.50
37678;DHT22;23517;50.390;8.616;2023-06-24T04:39:21;14.60;62.30
37678;DHT22;23517;50.390;8.616;2023-06-24T04:41:48;14.70;62.40
37678;DHT22;23517;50.390;8.616;2023-06-24T04:44:15;14.80;62.70
37678;DHT22;23517;50.390;8.616;2023-06-24T04:46:41;15.10;61.50
37678;DHT22;23517;50.390;8.616;2023-06-24T04:49:11;15.70;58.10
37678;DHT22;23517;50.390;8.616;2023-06-24T04:51:38;16.30;54.80
37678;DHT22;23517;50.390;8.616;2023-06-24T04:54:06;16.80;53.00
37678;DHT22;23517;50.390;8.616;2023-06-24T04:56:34;17.40;50.00
37678;DHT22;23517;50.390;8.616;2023-06-24T04:59:01;17.80;48.20
37678;DHT22;23517;50.390;8.616;2023-06-24T05:01:28;18.20;45.80
37678;DHT22;23517;50.390;8.616;2023-06-24T05:03:54;18.50;45.60
37678;DHT22;23517;50.390;8.616;2023-06-24T05:06:21;19.00;42.90
37678;DHT22;23517;50.390;8.616;2023-06-24T05:08:48;18.80;44.80
37678;DHT22;23517;50.390;8.616;2023-06-24T05:11:15;18.90;44.20
37678;DHT22;23517;50.390;8.616;2023-06-24T05:13:42;19.40;42.40
37678;DHT22;23517;50.390;8.616;2023-06-24T05:16:08;19.30;42.30
37678;DHT22;23517;50.390;8.616;2023-06-24T05:18:35;19.00;43.30
37678;DHT22;23517;50.390;8.616;2023-06-24T05:21:02;18.40;46.60
37678;DHT22;23517;50.390;8.616;2023-06-24T05:23:29;18.10;48.70
37678;DHT22;23517;50.390;8.616;2023-06-24T05:25:55;17.90;50.30
37678;DHT22;23517;50.390;8.616;2023-06-24T05:28:22;17.80;51.40
37678;DHT22;23517;50.390;8.616;2023-06-24T05:30:49;17.70;51.80
37678;DHT22;23517;50.390;8.616;2023-06-24T05:33:15;17.90;50.70
37678;DHT22;23517;50.390;8.616;2023-06-24T05:35:45;18.10;50.10
37678;DHT22;23517;50.390;8.616;2023-06-24T05:38:11;18.20;49.60
37678;DHT22;23517;50.390;8.616;2023-06-24T05:40:38;18.60;48.80
37678;DHT22;23517;50.390;8.616;2023-06-24T05:43:06;19.20;46.70
37678;DHT22;23517;50.390;8.616;2023-06-24T05:45:32;19.90;44.00
37678;DHT22;23517;50.390;8.616;2023-06-24T05:48:02;20.70;41.90
37678;DHT22;23517;50.390;8.616;2023-06-24T05:50:29;21.90;36.60
37678;DHT22;23517;50.390;8.616;2023-06-24T05:52:56;23.50;33.40
37678;DHT22;23517;50.390;8.616;2023-06-24T05:57:49;25.00;27.30
37678;DHT22;23517;50.390;8.616;2023-06-24T06:02:45;27.80;21.90
37678;DHT22;23517;50.390;8.616;2023-06-24T06:05:12;28.10;22.60
37678;DHT22;23517;50.390;8.616;2023-06-24T06:07:38;29.10;19.90
37678;DHT22;23517;50.390;8.616;2023-06-24T06:10:06;28.90;20.70
37678;DHT22;23517;50.390;8.616;2023-06-24T06:12:33;29.60;19.70
37678;DHT22;23517;50.390;8.616;2023-06-24T06:15:00;29.10;20.00
37678;DHT22;23517;50.390;8.616;2023-06-24T06:17:26;29.20;19.90
37678;DHT22;23517;50.390;8.616;2023-06-24T06:19:53;28.90;19.80
37678;DHT22;23517;50.390;8.616;2023-06-24T06:22:20;29.20;20.90
37678;DHT22;23517;50.390;8.616;2023-06-24T06:24:46;29.40;20.30
37678;DHT22;23517;50.390;8.616;2023-06-24T06:27:13;29.90;19.10
37678;DHT22;23517;50.390;8.616;2023-06-24T06:29:40;30.90;17.30
37678;DHT22;23517;50.390;8.616;2023-06-24T06:32:07;31.00;17.90
37678;DHT22;23517;50.390;8.616;2023-06-24T06:34:34;30.60;17.90
37678;DHT22;23517;50.390;8.616;2023-06-24T06:37:01;31.10;17.50
37678;DHT22;23517;50.390;8.616;2023-06-24T06:39:27;31.40;17.20
37678;DHT22;23517;50.390;8.616;2023-06-24T06:41:54;31.60;16.70
37678;DHT22;23517;50.390;8.616;2023-06-24T06:44:21;32.00;16.70
37678;DHT22;23517;50.390;8.616;2023-06-24T06:46:48;32.40;16.00
37678;DHT22;23517;50.390;8.616;2023-06-24T06:49:14;32.50;15.90
37678;DHT22;23517;50.390;8.616;2023-06-24T06:51:41;33.20;14.40
37678;DHT22;23517;50.390;8.616;2023-06-24T06:54:08;33.60;13.80
37678;DHT22;23517;50.390;8.616;2023-06-24T06:56:34;33.90;13.70
37678;DHT22;23517;50.390;8.616;2023-06-24T06:59:01;33.80;13.30
37678;DHT22;23517;50.390;8.616;2023-06-24T07:01:28;33.80;13.10
37678;DHT22;23517;50.390;8.616;2023-06-24T07:03:54;33.80;14.40
37678;DHT22;23517;50.390;8.616;2023-06-24T07:06:21;33.70;14.00
37678;DHT22;23517;50.390;8.616;2023-06-24T07:08:48;33.00;15.30
37678;DHT22;23517;50.390;8.616;2023-06-24T07:11:15;33.10;14.60
37678;DHT22;23517;50.390;8.616;2023-06-24T07:13:42;33.40;14.20
37678;DHT22;23517;50.390;8.616;2023-06-24T07:16:09;34.20;13.50
37678;DHT22;23517;50.390;8.616;2023-06-24T07:18:35;33.00;14.40
37678;DHT22;23517;50.390;8.616;2023-06-24T07:21:02;33.50;14.40
37678;DHT22;23517;50.390;8.616;2023-06-24T07:23:29;33.20;14.90
37678;DHT22;23517;50.390;8.616;2023-06-24T07:25:55;34.50;13.40
37678;DHT22;23517;50.390;8.616;2023-06-24T07:28:22;33.40;14.70
37678;DHT22;23517;50.390;8.616;2023-06-24T07:30:49;33.60;14.50
37678;DHT22;23517;50.390;8.616;2023-06-24T07:33:16;34.10;14.30
37678;DHT22;23517;50.390;8.616;2023-06-24T07:35:42;34.50;13.70
37678;DHT22;23517;50.390;8.616;2023-06-24T07:38:09;34.00;13.40
37678;DHT22;23517;50.390;8.616;2023-06-24T07:40:36;34.50;13.10
37678;DHT22;23517;50.390;8.616;2023-06-24T07:43:02;34.90;12.90
37678;DHT22;23517;50.390;8.616;2023-06-24T07:45:29;35.50;12.20
37678;DHT22;23517;50.390;8.616;2023-06-24T07:47:56;35.50;12.20
37678;DHT22;23517;50.390;8.616;2023-06-24T07:50:23;36.30;11.90
37678;DHT22;23517;50.390;8.616;2023-06-24T07:52:50;35.60;12.50
37678;DHT22;23517;50.390;8.616;2023-06-24T07:55:18;35.00;12.90
37678;DHT22;23517;50.390;8.616;2023-06-24T07:57:45;34.90;13.00
37678;DHT22;23517;50.390;8.616;2023-06-24T08:00:14;35.00;13.50
37678;DHT22;23517;50.390;8.616;2023-06-24T08:02:41;35.40;12.90
37678;DHT22;23517;50.390;8.616;2023-06-24T08:05:08;35.30;13.10
37678;DHT22;23517;50.390;8.616;2023-06-24T08:07:37;35.60;12.70
37678;DHT22;23517;50.390;8.616;2023-06-24T08:10:06;35.50;13.10
37678;DHT22;23517;50.390;8.616;2023-06-24T08:12:33;35.70;12.60
37678;DHT22;23517;50.390;8.616;2023-06-24T08:14:59;35.00;13.80
37678;DHT22;23517;50.390;8.616;2023-06-24T08:17:26;34.60;14.30
37678;DHT22;23517;50.390;8.616;2023-06-24T08:19:53;35.60;12.80
37678;DHT22;23517;50.390;8.616;2023-06-24T08:22:20;35.80;12.40
37678;DHT22;23517;50.390;8.616;2023-06-24T08:24:53;35.80;12.40
37678;DHT22;23517;50.390;8.616;2023-06-24T08:27:19;35.40;13.00
37678;DHT22;23517;50.390;8.616;2023-06-24T08:29:46;35.20;13.30
37678;DHT22;23517;50.390;8.616;2023-06-24T08:32:13;35.50;12.60
37678;DHT22;23517;50.390;8.616;2023-06-24T08:34:39;35.50;13.00
37678;DHT22;23517;50.390;8.616;2023-06-24T08:37:06;35.50;13.30
37678;DHT22;23517;50.390;8.616;2023-06-24T08:39:33;35.80;11.80
37678;DHT22;23517;50.390;8.616;2023-06-24T08:41:59;36.10;11.80
37678;DHT22;23517;50.390;8.616;2023-06-24T08:44:26;35.30;13.10
37678;DHT22;23517;50.390;8.616;2023-06-24T08:46:53;34.80;12.70
37678;DHT22;23517;50.390;8.616;2023-06-24T08:52:03;35.50;11.20
37678;DHT22;23517;50.390;8.616;2023-06-24T08:54:34;36.20;11.10
37678;DHT22;23517;50.390;8.616;2023-06-24T08:57:05;35.30;11.60
37678;DHT22;23517;50.390;8.616;2023-06-24T08:59:34;35.10;12.20
37678;DHT22;23517;50.390;8.616;2023-06-24T09:02:01;35.50;12.10
37678;DHT22;23517;50.390;8.616;2023-06-24T09:04:28;35.30;12.40
37678;DHT22;23517;50.390;8.616;2023-06-24T09:06:55;35.40;12.50
37678;DHT22;23517;50.390;8.616;2023-06-24T09:09:23;35.20;12.30
37678;DHT22;23517;50.390;8.616;2023-06-24T09:11:55;34.90;11.50
37678;DHT22;23517;50.390;8.616;2023-06-24T09:14:24;35.30;11.80
37678;DHT22;23517;50.390;8.616;2023-06-24T09:16:53;35.30;11.40
37678;DHT22;23517;50.390;8.616;2023-06-24T09:19:25;35.80;10.60
37678;DHT22;23517;50.390;8.616;2023-06-24T09:21:56;35.70;10.90
37678;DHT22;23517;50.390;8.616;2023-06-24T09:24:30;35.20;11.40
37678;DHT22;23517;50.390;8.616;2023-06-24T09:26:57;35.70;11.00
37678;DHT22;23517;50.390;8.616;2023-06-24T09:29:28;36.20;10.90
37678;DHT22;23517;50.390;8.616;2023-06-24T09:31:58;35.70;10.60
37678;DHT22;23517;50.390;8.616;2023-06-24T09:34:28;36.00;10.80
37678;DHT22;23517;50.390;8.616;2023-06-24T09:39:25;32.60;12.60
37678;DHT22;23517;50.390;8.616;2023-06-24T09:41:57;31.40;15.20
37678;DHT22;23517;50.390;8.616;2023-06-24T09:44:25;30.00;16.60
37678;DHT22;23517;50.390;8.616;2023-06-24T09:46:53;29.00;17.50
37678;DHT22;23517;50.390;8.616;2023-06-24T09:49:20;28.40;18.70
37678;DHT22;23517;50.390;8.616;2023-06-24T09:51:48;28.20;19.30
37678;DHT22;23517;50.390;8.616;2023-06-24T09:54:17;27.80;19.40
37678;DHT22;23517;50.390;8.616;2023-06-24T09:56:52;27.40;20.20
37678;DHT22;23517;50.390;8.616;2023-06-24T09:59:20;27.00;21.20
37678;DHT22;23517;50.390;8.616;2023-06-24T10:01:49;26.60;21.60
37678;DHT22;23517;50.390;8.616;2023-06-24T10:04:18;26.40;21.80
37678;DHT22;23517;50.390;8.616;2023-06-24T10:06:46;26.40;22.40
37678;DHT22;23517;50.390;8.616;2023-06-24T10:09:13;26.90;21.70
37678;DHT22;23517;50.390;8.616;2023-06-24T10:11:44;28.40;19.80
37678;DHT22;23517;50.390;8.616;2023-06-24T10:14:12;30.20;18.10
37678;DHT22;23517;50.390;8.616;2023-06-24T10:16:41;31.50;16.40
37678;DHT22;23517;50.390;8.616;2023-06-24T10:19:09;32.50;14.80
37678;DHT22;23517;50.390;8.616;2023-06-24T10:21:51;31.80;14.80
37678;DHT22;23517;50.390;8.616;2023-06-24T10:24:36;31.10;16.20
37678;DHT22;23517;50.390;8.616;2023-06-24T10:27:20;31.00;16.20
37678;DHT22;23517;50.390;8.616;2023-06-24T10:29:53;30.40;16.40
37678;DHT22;23517;50.390;8.616;2023-06-24T10:32:23;30.20;17.10
37678;DHT22;23517;50.390;8.616;2023-06-24T10:34:56;29.70;17.40
37678;DHT22;23517;50.390;8.616;2023-06-24T10:37:25;29.80;17.30
37678;DHT22;23517;50.390;8.616;2023-06-24T10:39:53;29.90;17.20
37678;DHT22;23517;50.390;8.616;2023-06-24T10:42:31;29.50;17.30
37678;DHT22;23517;50.390;8.616;2023-06-24T10:50:12;28.40;18.40
37678;DHT22;23517;50.390;8.616;2023-06-24T10:52:40;28.40;18.50
37678;DHT22;23517;50.390;8.616;2023-06-24T10:55:14;28.10;18.40
37678;DHT22;23517;50.390;8.616;2023-06-24T10:57:42;27.90;18.80
37678;DHT22;23517;50.390;8.616;2023-06-24T11:00:10;27.50;19.20
37678;DHT22;23517;50.390;8.616;2023-06-24T11:02:38;27.40;19.80
37678;DHT22;23517;50.390;8.616;2023-06-24T11:05:06;27.20;20.30
37678;DHT22;23517;50.390;8.616;2023-06-24T11:07:35;27.00;20.50
37678;DHT22;23517;50.390;8.616;2023-06-24T11:10:10;26.80;20.60
37678;DHT22;23517;50.390;8.616;2023-06-24T11:12:40;26.70;21.40
37678;DHT22;23517;50.390;8.616;2023-06-24T11:15:10;26.80;21.30
37678;DHT22;23517;50.390;8.616;2023-06-24T11:17:38;26.90;20.60
37678;DHT22;23517;50.390;8.616;2023-06-24T11:20:13;27.00;20.50
37678;DHT22;23517;50.390;8.616;2023-06-24T11:22:41;27.20;20.30
37678;DHT22;23517;50.390;8.616;2023-06-24T11:25:19;27.40;20.40
37678;DHT22;23517;50.390;8.616;2023-06-24T11:27:46;27.80;19.80
37678;DHT22;23517;50.390;8.616;2023-06-24T11:30:15;27.90;19.50
37678;DHT22;23517;50.390;8.616;2023-06-24T11:32:44;27.50;19.70
37678;DHT22;23517;50.390;8.616;2023-06-24T11:35:12;27.40;19.80
37678;DHT22;23517;50.390;8.616;2023-06-24T11:37:43;27.20;20.10
37678;DHT22;23517;50.390;8.616;2023-06-24T11:40:12;27.20;20.10
37678;DHT22;23517;50.390;8.616;2023-06-24T11:42:41;27.00;19.90
37678;DHT22;23517;50.390;8.616;2023-06-24T11:45:12;27.10;19.60
37678;DHT22;23517;50.390;8.616;2023-06-24T11:47:42;27.40;19.10
37678;DHT22;23517;50.390;8.616;2023-06-24T11:50:09;27.50;18.90
37678;DHT22;23517;50.390;8.616;2023-06-24T11:55:23;27.40;18.50
37678;DHT22;23517;50.390;8.616;2023-06-24T11:57:59;27.30;18.80
37678;DHT22;23517;50.390;8.616;2023-06-24T12:00:35;27.50;19.70
37678;DHT22;23517;50.390;8.616;2023-06-24T12:03:07;27.70;18.80
37678;DHT22;23517;50.390;8.616;2023-06-24T12:05:38;27.80;18.50
37678;DHT22;23517;50.390;8.616;2023-06-24T12:08:08;27.60;19.00
37678;DHT22;23517;50.390;8.616;2023-06-24T12:10:37;27.40;19.00
37678;DHT22;23517;50.390;8.616;2023-06-24T12:13:06;27.40;19.90
37678;DHT22;23517;50.390;8.616;2023-06-24T12:15:33;27.40;19.90
37678;DHT22;23517;50.390;8.616;2023-06-24T12:18:01;27.50;18.80
37678;DHT22;23517;50.390;8.616;2023-06-24T12:20:29;27.60;19.10
37678;DHT22;23517;50.390;8.616;2023-06-24T12:23:03;27.40;19.20
37678;DHT22;23517;50.390;8.616;2023-06-24T12:25:33;27.20;19.40
37678;DHT22;23517;50.390;8.616;2023-06-24T12:27:59;27.10;19.60
37678;DHT22;23517;50.390;8.616;2023-06-24T12:30:27;27.00;20.30
37678;DHT22;23517;50.390;8.616;2023-06-24T12:32:54;26.90;19.90
37678;DHT22;23517;50.390;8.616;2023-06-24T12:35:22;27.00;20.50
37678;DHT22;23517;50.390;8.616;2023-06-24T12:37:52;27.00;19.70
37678;DHT22;23517;50.390;8.616;2023-06-24T12:40:19;27.00;19.70
37678;DHT22;23517;50.390;8.616;2023-06-24T12:42:46;26.90;19.40
37678;DHT22;23517;50.390;8.616;2023-06-24T12:45:12;26.80;19.50
37678;DHT22;23517;50.390;8.616;2023-06-24T12:47:41;26.90;20.00
37678;DHT22;23517;50.390;8.616;2023-06-24T12:50:08;26.90;19.80
37678;DHT22;23517;50.390;8.616;2023-06-24T12:52:36;26.80;19.60
37678;DHT22;23517;50.390;8.616;2023-06-24T12:55:05;26.70;19.80
37678;DHT22;23517;50.390;8.616;2023-06-24T12:57:32;26.80;20.60
37678;DHT22;23517;50.390;8.616;2023-06-24T12:59:59;27.10;20.60
37678;DHT22;23517;50.390;8.616;2023-06-24T13:02:25;27.20;19.90
37678;DHT22;23517;50.390;8.616;2023-06-24T13:04:55;27.20;19.80
37678;DHT22;23517;50.390;8.616;2023-06-24T13:07:22;27.40;19.60
37678;DHT22;23517;50.390;8.616;2023-06-24T13:09:49;27.50;19.40
37678;DHT22;23517;50.390;8.616;2023-06-24T13:12:16;27.30;18.60
37678;DHT22;23517;50.390;8.616;2023-06-24T13:14:43;27.10;19.20
37678;DHT22;23517;50.390;8.616;2023-06-24T13:17:09;27.10;19.50
37678;DHT22;23517;50.390;8.616;2023-06-24T13:19:36;27.20;19.70
37678;DHT22;23517;50.390;8.616;2023-06-24T13:22:03;27.30;19.40
37678;DHT22;23517;50.390;8.616;2023-06-24T13:24:30;27.50;19.60
37678;DHT22;23517;50.390;8.616;2023-06-24T13:26:57;27.70;19.80
37678;DHT22;23517;50.390;8.616;2023-06-24T13:29:23;27.70;19.10
37678;DHT22;23517;50.390;8.616;2023-06-24T13:31:50;27.80;18.10
37678;DHT22;23517;50.390;8.616;2023-06-24T13:34:16;27.80;17.60
37678;DHT22;23517;50.390;8.616;2023-06-24T13:36:43;27.90;18.60
37678;DHT22;23517;50.390;8.616;2023-06-24T13:39:10;28.00;18.80
37678;DHT22;23517;50.390;8.616;2023-06-24T13:41:39;27.90;17.60
37678;DHT22;23517;50.390;8.616;2023-06-24T13:44:06;28.00;18.10
37678;DHT22;23517;50.390;8.616;2023-06-24T13:46:32;27.90;17.90
37678;DHT22;23517;50.390;8.616;2023-06-24T13:48:59;28.00;18.40
37678;DHT22;23517;50.390;8.616;2023-06-24T13:51:30;27.80;17.90
37678;DHT22;23517;50.390;8.616;2023-06-24T13:53:57;27.90;17.80
37678;DHT22;23517;50.390;8.616;2023-06-24T13:56:24;28.00;18.00
37678;DHT22;23517;50.390;8.616;2023-06-24T13:58:52;28.00;18.20
37678;DHT22;23517;50.390;8.616;2023-06-24T14:01:20;28.10;17.70
37678;DHT22;23517;50.390;8.616;2023-06-24T14:03:48;28.50;16.80
37678;DHT22;23517;50.390;8.616;2023-06-24T14:06:18;28.50;16.80
37678;DHT22;23517;50.390;8.616;2023-06-24T14:08:46;28.60;16.80
37678;DHT22;23517;50.390;8.616;2023-06-24T14:11:13;28.70;16.80
37678;DHT22;23517;50.390;8.616;2023-06-24T14:13:40;28.80;16.50
37678;DHT22;23517;50.390;8.616;2023-06-24T14:16:08;28.70;16.50
37678;DHT22;23517;50.390;8.616;2023-06-24T14:18:35;28.80;16.60
37678;DHT22;23517;50.390;8.616;2023-06-24T14:21:03;28.50;16.80
37678;DHT22;23517;50.390;8.616;2023-06-24T14:23:31;28.50;17.40
37678;DHT22;23517;50.390;8.616;2023-06-24T14:25:59;28.50;17.20
37678;DHT22;23517;50.390;8.616;2023-06-24T14:28:26;28.50;17.20
37678;DHT22;23517;50.390;8.616;2023-06-24T14:30:53;28.30;17.20
37678;DHT22;23517;50.390;8.616;2023-06-24T14:33:20;28.10;17.30
37678;DHT22;23517;50.390;8.616;2023-06-24T14:35:47;28.10;18.00
37678;DHT22;23517;50.390;8.616;2023-06-24T14:38:13;27.80;18.30
37678;DHT22;23517;50.390;8.616;2023-06-24T14:40:40;27.70;18.30
37678;DHT22;23517;50.390;8.616;2023-06-24T14:43:07;27.60;18.40
37678;DHT22;23517;50.390;8.616;2023-06-24T14:45:33;27.50;18.80
37678;DHT22;23517;50.390;8.616;2023-06-24T14:48:00;27.50;19.10
37678;DHT22;23517;50.390;8.616;2023-06-24T14:50:27;27.40;19.00
37678;DHT22;23517;50.390;8.616;2023-06-24T14:52:54;27.40;19.20
37678;DHT22;23517;50.390;8.616;2023-06-24T14:55:21;27.40;19.20
37678;DHT22;23517;50.390;8.616;2023-06-24T14:57:48;27.50;19.30
37678;DHT22;23517;50.390;8.616;2023-06-24T15:00:15;27.70;18.60
37678;DHT22;23517;50.390;8.616;2023-06-24T15:02:42;27.50;18.50
37678;DHT22;23517;50.390;8.616;2023-06-24T15:05:09;27.50;18.80
37678;DHT22;23517;50.390;8.616;2023-06-24T15:07:35;27.60;18.50
37678;DHT22;23517;50.390;8.616;2023-06-24T15:10:05;27.70;18.70
37678;DHT22;23517;50.390;8.616;2023-06-24T15:12:32;27.70;18.30
37678;DHT22;23517;50.390;8.616;2023-06-24T15:15:00;27.90;18.40
37678;DHT22;23517;50.390;8.616;2023-06-24T15:17:27;27.80;17.70
37678;DHT22;23517;50.390;8.616;2023-06-24T15:19:56;27.60;18.30
37678;DHT22;23517;50.390;8.616;2023-06-24T15:22:23;27.40;18.80
37678;DHT22;23517;50.390;8.616;2023-06-24T15:24:50;27.30;18.70
37678;DHT22;23517;50.390;8.616;2023-06-24T15:27:16;27.20;19.20
37678;DHT22;23517;50.390;8.616;2023-06-24T15:29:43;27.30;19.10
37678;DHT22;23517;50.390;8.616;2023-06-24T15:32:10;27.20;19.20
37678;DHT22;23517;50.390;8.616;2023-06-24T15:34:36;27.20;19.20
37678;DHT22;23517;50.390;8.616;2023-06-24T15:37:03;27.30;19.50
37678;DHT22;23517;50.390;8.616;2023-06-24T15:39:30;27.20;19.60
37678;DHT22;23517;50.390;8.616;2023-06-24T15:41:57;27.30;19.10
37678;DHT22;23517;50.390;8.616;2023-06-24T15:44:23;27.30;18.60
37678;DHT22;23517;50.390;8.616;2023-06-24T15:46:50;27.40;18.50
37678;DHT22;23517;50.390;8.616;2023-06-24T15:49:17;27.40;19.20
37678;DHT22;23517;50.390;8.616;2023-06-24T15:51:43;27.20;19.10
37678;DHT22;23517;50.390;8.616;2023-06-24T15:54:10;27.30;19.60
37678;DHT22;23517;50.390;8.616;2023-06-24T15:56:37;27.20;19.10
37678;DHT22;23517;50.390;8.616;2023-06-24T15:59:03;27.30;18.90
37678;DHT22;23517;50.390;8.616;2023-06-24T16:01:30;27.40;18.90
37678;DHT22;23517;50.390;8.616;2023-06-24T16:03:57;27.40;18.70